Time;durP1;ratioP1;P1;durP2;ratioP2;P2;SDS_P1;SDS_P2;PMS_P1;PMS_P2;Temp;Humidity;BMP_temperature;BMP_pressure;BME280_temperature;BME280_humidity;BME280_pressure;Samples;Min_cycle;Max_cycle;Signal;HPM_P1;HPM_P2
2023/03/24 00:01:41;;;;;;;3.8;2.8;;;;;;;10.83;77.80566;932.0031;;;;
2023/03/24 00:04:23;;;;;;;5.8;2.7;;;;;;;10.76;78.11426;932.0142;;;;
2023/03/24 00:06:49;;;;;;;4.3;2.8;;;;;;;10.59;79.28223;931.9328;;;;
2023/03/24 00:09:22;;;;;;;3.7;2.6;;;;;;;10.62;79.08301;931.9156;;;;
2023/03/24 00:14:47;;;;;;;3.9;2.5;;;;;;;10.59;79.22656;931.932;;;;
2023/03/24 00:17:18;;;;;;;3.3;2.3;;;;;;;10.54;79.36523;931.7809;;;;
2023/03/24 00:19:57;;;;;;;2.9;2.3;;;;;;;10.49;79.45801;931.8406;;;;
2023/03/24 00:22:42;;;;;;;3;2.3;;;;;;;10.49;79.59668;931.8533;;;;
2023/03/24 00:25:16;;;;;;;4.6;2.7;;;;;;;10.41;79.97949;931.9113;;;;
2023/03/24 00:27:56;;;;;;;3.9;2.4;;;;;;;10.54;79.33105;931.7252;;;;
2023/03/24 00:30:27;;;;;;;3.3;2;;;;;;;10.55;79.14941;931.679;;;;
2023/03/24 00:33:00;;;;;;;4.2;2.3;;;;;;;10.58;78.73242;931.6774;;;;
2023/03/24 00:35:26;;;;;;;3.3;2.4;;;;;;;10.53;79.07617;931.7084;;;;
2023/03/24 00:37:58;;;;;;;3.5;2.4;;;;;;;10.47;79.31738;931.6711;;;;
2023/03/24 00:40:35;;;;;;;5;2.3;;;;;;;10.44;79.58496;931.7292;;;;
2023/03/24 00:49:43;;;;;;;4.3;2.8;;;;;;;10.43;78.70605;931.5287;;;;
2023/03/24 00:51:56;;;;;;;2.5;2.3;;;;;;;10.5;78.55762;931.4633;;;;
2023/03/24 00:54:20;;;;;;;4.8;2.5;;;;;;;10.6;77.97168;931.4274;;;;
2023/03/24 00:56:48;;;;;;;3.8;2.6;;;;;;;10.64;77.5791;931.3384;;;;
2023/03/24 00:59:12;;;;;;;3.5;2.6;;;;;;;10.52;78.33301;931.4306;;;;
2023/03/24 01:01:42;;;;;;;3.2;2.4;;;;;;;10.39;78.60645;931.4202;;;;
2023/03/24 01:04:13;;;;;;;4.6;2.9;;;;;;;10.34;79.125;931.351;;;;
2023/03/24 01:06:43;;;;;;;3.1;2.5;;;;;;;10.43;78.86426;931.3894;;;;
2023/03/24 01:09:06;;;;;;;3.6;2.3;;;;;;;10.33;79.40723;931.3845;;;;
2023/03/24 01:11:36;;;;;;;4.5;2.4;;;;;;;10.22;79.90039;931.356;;;;
2023/03/24 01:14:01;;;;;;;3.3;2.6;;;;;;;10.2;80.03223;931.3481;;;;
2023/03/24 01:16:29;;;;;;;3.5;2.3;;;;;;;10.18;79.95898;931.2241;;;;
2023/03/24 01:18:54;;;;;;;4.9;3.1;;;;;;;10.35;79.37598;931.2611;;;;
2023/03/24 01:21:20;;;;;;;4;2.5;;;;;;;10.35;79.19336;931.2611;;;;
2023/03/24 01:24:10;;;;;;;3.3;2.7;;;;;;;10.28;79.43066;931.1951;;;;
2023/03/24 01:26:37;;;;;;;4.7;2.4;;;;;;;10.28;79.47656;931.1323;;;;
2023/03/24 01:29:03;;;;;;;4;2.4;;;;;;;10.44;78.77441;931.0775;;;;
2023/03/24 01:31:33;;;;;;;3.4;2.4;;;;;;;10.49;78.73828;931.0829;;;;
2023/03/24 01:33:58;;;;;;;3.4;2.4;;;;;;;10.41;78.74707;930.9604;;;;
2023/03/24 01:36:27;;;;;;;3;2.2;;;;;;;10.33;79.16602;931.0733;;;;
2023/03/24 01:38:52;;;;;;;2.7;2.5;;;;;;;10.34;79.14648;931.0208;;;;
2023/03/24 01:41:23;;;;;;;4.8;2.4;;;;;;;10.39;78.86719;930.9372;;;;
2023/03/24 01:44:13;;;;;;;3.4;2.4;;;;;;;10.45;78.67383;930.9788;;;;
2023/03/24 01:46:38;;;;;;;4.2;2.8;;;;;;;10.47;78.49609;930.9882;;;;
2023/03/24 01:49:05;;;;;;;3.5;2.4;;;;;;;10.26;79.43945;931.0861;;;;
2023/03/24 01:51:33;;;;;;;2.7;2.3;;;;;;;10.32;79.22266;931.0765;;;;
2023/03/24 01:53:56;;;;;;;3.4;2.5;;;;;;;10.3;79.37891;931.0017;;;;
2023/03/24 01:56:21;;;;;;;4.4;2.4;;;;;;;10.35;79.18164;931.0144;;;;
2023/03/24 01:58:46;;;;;;;4.3;2.7;;;;;;;10.13;80.29297;931.0197;;;;
2023/03/24 02:01:11;;;;;;;4.6;2.9;;;;;;;10.16;80.30957;931.0737;;;;
2023/03/24 02:03:37;;;;;;;12.6;3.1;;;;;;;10.26;79.90723;931.0726;;;;
2023/03/24 02:09:57;;;;;;;7.8;4.5;;;;;;;10.42;79.19531;931.0966;;;;
2023/03/24 02:12:22;;;;;;;8.2;4.8;;;;;;;10.42;79.25098;931.0726;;;;
2023/03/24 02:14:47;;;;;;;9.1;6.4;;;;;;;10.31;79.77832;931.0391;;;;
2023/03/24 02:17:47;;;;;;;8.4;4.7;;;;;;;10.4;79.27051;931.1178;;;;
2023/03/24 02:20:13;;;;;;;9.4;5.6;;;;;;;10.51;78.99316;931.082;;;;
2023/03/24 02:22:38;;;;;;;6.5;4.1;;;;;;;10.45;79.06348;931.079;;;;
2023/03/24 02:25:05;;;;;;;5.7;4;;;;;;;10.44;79.25586;931.0878;;;;
2023/03/24 02:27:32;;;;;;;6.3;4.4;;;;;;;10.49;78.80762;931.0352;;;;
2023/03/24 02:29:58;;;;;;;5.3;4;;;;;;;10.42;79.27539;931.1014;;;;
2023/03/24 02:32:24;;;;;;;5.6;4.1;;;;;;;10.45;79.28027;930.9955;;;;
2023/03/24 02:35:34;;;;;;;5.1;4.1;;;;;;;10.44;79.0498;930.8729;;;;
2023/03/24 02:37:59;;;;;;;5.5;3.4;;;;;;;10.46;79.05176;930.9963;;;;
2023/03/24 02:40:28;;;;;;;4.4;3.5;;;;;;;10.57;78.53516;930.9665;;;;
2023/03/24 02:42:55;;;;;;;5.4;3.6;;;;;;;10.48;78.59961;931.024;;;;
2023/03/24 02:45:23;;;;;;;4;3.2;;;;;;;10.48;78.56543;930.9755;;;;
2023/03/24 02:47:48;;;;;;;4;3;;;;;;;10.62;77.87305;931.0176;;;;
2023/03/24 02:50:19;;;;;;;3.4;2.9;;;;;;;10.59;77.91211;931.0181;;;;
2023/03/24 02:52:45;;;;;;;3.8;3.1;;;;;;;10.47;78.62305;931.0097;;;;
2023/03/24 02:58:38;;;;;;;4.3;3.1;;;;;;;10.2;80.03223;931.123;;;;
2023/03/24 03:01:08;;;;;;;4.4;3.3;;;;;;;10.02;80.94727;930.9514;;;;
2023/03/24 03:03:33;;;;;;;3.9;3.3;;;;;;;10.06;80.92969;930.9888;;;;
2023/03/24 03:05:59;;;;;;;4.5;3.1;;;;;;;10.25;80.17969;931.009;;;;
2023/03/24 03:08:23;;;;;;;4.1;3.5;;;;;;;10.22;80.22949;931.0075;;;;
2023/03/24 03:10:54;;;;;;;5.9;3.6;;;;;;;10.29;80.20898;931.0424;;;;
2023/03/24 03:13:19;;;;;;;5.7;3.3;;;;;;;10.12;80.84961;930.9465;;;;
2023/03/24 03:15:44;;;;;;;4.5;3.1;;;;;;;10.34;79.85352;930.8744;;;;
2023/03/24 03:18:09;;;;;;;6.1;3.6;;;;;;;10.14;80.4668;930.8375;;;;
2023/03/24 03:20:35;;;;;;;5;3.6;;;;;;;10.07;80.7959;930.82;;;;
2023/03/24 03:22:59;;;;;;;5.4;3.5;;;;;;;10.05;80.92773;930.7684;;;;
2023/03/24 03:25:24;;;;;;;4.7;3.1;;;;;;;10.06;80.75781;930.7;;;;
2023/03/24 03:27:51;;;;;;;3.6;2.9;;;;;;;10.07;80.78418;930.7477;;;;
2023/03/24 03:30:17;;;;;;;4.4;3.3;;;;;;;10.18;80.18848;930.5645;;;;
2023/03/24 03:32:44;;;;;;;4.1;3.2;;;;;;;10.31;79.52734;930.5506;;;;
2023/03/24 03:38:16;;;;;;;4.4;3.2;;;;;;;10.25;79.97363;930.5634;;;;
2023/03/24 03:40:42;;;;;;;5.1;3;;;;;;;10.18;80.30078;930.6417;;;;
2023/03/24 03:43:12;;;;;;;5.3;3.7;;;;;;;9.94;81.63867;930.7061;;;;
2023/03/24 03:45:38;;;;;;;5.7;4;;;;;;;9.74;83.03516;930.6813;;;;
2023/03/24 03:48:06;;;;;;;5.7;3.7;;;;;;;9.77;82.9043;930.6415;;;;
2023/03/24 03:50:31;;;;;;;7.2;4.3;;;;;;;9.75;83.11914;930.6295;;;;
2023/03/24 03:53:00;;;;;;;6.1;4.3;;;;;;;9.64;83.56348;930.5914;;;;
2023/03/24 03:55:25;;;;;;;5.6;4;;;;;;;9.7;82.86719;930.5613;;;;
2023/03/24 03:57:53;;;;;;;7.3;3.9;;;;;;;9.77;82.65332;930.5978;;;;
2023/03/24 04:02:35;;;;;;;6.5;3.6;;;;;;;9.83;82.08398;930.5408;;;;
2023/03/24 04:05:04;;;;;;;4.9;3.7;;;;;;;9.89;80.97852;930.5344;;;;
2023/03/24 04:07:29;;;;;;;4.9;3.9;;;;;;;9.86;80.79102;930.5257;;;;
2023/03/24 04:09:55;;;;;;;4.6;3.7;;;;;;;9.97;80.13867;930.5042;;;;
2023/03/24 04:12:21;;;;;;;4.6;3.8;;;;;;;10.03;79.875;930.4694;;;;
2023/03/24 04:14:46;;;;;;;4.6;3.6;;;;;;;10.2;79.22266;930.4451;;;;
2023/03/24 04:17:11;;;;;;;5.5;4;;;;;;;10.33;78.48047;930.4081;;;;
2023/03/24 04:19:41;;;;;;;4.9;3.8;;;;;;;10.31;78.87695;930.3923;;;;
2023/03/24 04:22:06;;;;;;;6.3;4.1;;;;;;;10.38;78.58203;930.478;;;;
2023/03/24 04:24:31;;;;;;;5.7;3.9;;;;;;;10.33;78.7207;930.5044;;;;
2023/03/24 04:31:57;;;;;;;5.3;3.9;;;;;;;9.95;80.72656;930.5598;;;;
2023/03/24 04:34:21;;;;;;;5.8;3.9;;;;;;;9.98;80.75586;930.3466;;;;
2023/03/24 04:36:53;;;;;;;5.7;3.6;;;;;;;9.92;81.0752;930.4914;;;;
2023/03/24 04:39:16;;;;;;;4;3.5;;;;;;;9.84;81.49414;930.5027;;;;
2023/03/24 04:41:46;;;;;;;6.1;4;;;;;;;9.88;81.54688;930.5289;;;;
2023/03/24 04:44:11;;;;;;;5.4;3.8;;;;;;;10.01;81.08008;930.4739;;;;
2023/03/24 04:46:39;;;;;;;6.9;3.7;;;;;;;10.05;80.81543;930.3787;;;;
2023/03/24 04:49:08;;;;;;;5.6;4.2;;;;;;;10.08;80.76172;930.4852;;;;
2023/03/24 04:51:33;;;;;;;4.8;3.6;;;;;;;10.01;81.04492;930.5574;;;;
2023/03/24 04:54:02;;;;;;;5.5;3.5;;;;;;;10.05;80.64258;930.5162;;;;
2023/03/24 04:56:30;;;;;;;5.2;3.6;;;;;;;10.12;80.56445;930.4883;;;;
2023/03/24 04:58:57;;;;;;;4.1;3.4;;;;;;;10.12;80.55371;930.4772;;;;
2023/03/24 05:01:22;;;;;;;5.7;3.2;;;;;;;9.94;81.27344;930.3809;;;;
2023/03/24 05:03:52;;;;;;;5.3;3.8;;;;;;;9.97;80.92578;930.4779;;;;
2023/03/24 05:08:59;;;;;;;4.2;3.8;;;;;;;10.21;79.96582;930.441;;;;
2023/03/24 05:11:24;;;;;;;3.9;3.5;;;;;;;10.31;79.34473;930.4606;;;;
2023/03/24 05:15:10;;;;;;;4.8;3.8;;;;;;;10.44;78.85645;930.4614;;;;
2023/03/24 05:17:43;;;;;;;4.5;3.7;;;;;;;10.43;79.04883;930.5497;;;;
2023/03/24 05:20:13;;;;;;;155.6;81.1;;;;;;;10.45;79.0293;930.545;;;;
2023/03/24 05:22:37;;;;;;;12.5;8.4;;;;;;;10.4;79.35156;930.5185;;;;
2023/03/24 05:25:04;;;;;;;7.7;4.5;;;;;;;10.44;79.00293;930.4622;;;;
2023/03/24 05:27:29;;;;;;;5.3;4.4;;;;;;;10.5;78.94727;930.532;;;;
2023/03/24 05:29:54;;;;;;;10.7;6.7;;;;;;;10.5;78.94629;930.4986;;;;
2023/03/24 05:32:19;;;;;;;12.8;6.8;;;;;;;10.49;78.9668;930.4103;;;;
2023/03/24 05:34:47;;;;;;;10.7;6.4;;;;;;;10.6;78.47266;930.402;;;;
2023/03/24 05:37:15;;;;;;;9.4;6.2;;;;;;;10.66;78.06152;930.371;;;;
2023/03/24 05:39:47;;;;;;;10.6;5.9;;;;;;;10.71;77.65918;930.3175;;;;
2023/03/24 05:42:13;;;;;;;7.7;5.4;;;;;;;10.72;77.78809;930.3102;;;;
2023/03/24 05:44:42;;;;;;;6.1;4.6;;;;;;;10.68;77.81543;930.3431;;;;
2023/03/24 05:47:11;;;;;;;6.1;4.9;;;;;;;10.81;77.5293;930.3242;;;;
2023/03/24 05:49:38;;;;;;;7.3;5.2;;;;;;;10.93;77.53906;930.2809;;;;
2023/03/24 05:52:04;;;;;;;9;5.5;;;;;;;10.95;75.50977;930.3055;;;;
2023/03/24 05:54:29;;;;;;;8.1;5.2;;;;;;;11.04;74.08398;930.3396;;;;
2023/03/24 05:56:57;;;;;;;11.4;7;;;;;;;11.2;74.93359;930.2805;;;;
2023/03/24 05:59:22;;;;;;;14.9;8;;;;;;;11.11;75.59375;930.2405;;;;
2023/03/24 06:01:55;;;;;;;21.3;10.9;;;;;;;11.21;75.81543;930.2159;;;;
2023/03/24 06:04:19;;;;;;;17.7;9.4;;;;;;;11.21;75.73535;930.31;;;;
2023/03/24 06:06:44;;;;;;;12.4;7.8;;;;;;;11.04;76.84961;930.358;;;;
2023/03/24 06:09:08;;;;;;;12.6;7;;;;;;;11.12;76.80762;930.2778;;;;
2023/03/24 06:11:35;;;;;;;9.3;6.2;;;;;;;11.01;77.24316;930.2144;;;;
2023/03/24 06:14:00;;;;;;;10.4;6.2;;;;;;;10.98;77.9834;930.1891;;;;
2023/03/24 06:16:32;;;;;;;10.3;5.7;;;;;;;10.98;78.22168;930.1469;;;;
2023/03/24 06:18:55;;;;;;;10.4;5.9;;;;;;;10.99;77.85938;930.0161;;;;
2023/03/24 06:21:20;;;;;;;9;5.6;;;;;;;10.99;77.6875;930.0639;;;;
2023/03/24 06:26:24;;;;;;;15.1;6.9;;;;;;;11.13;76.19141;930.0037;;;;
2023/03/24 06:29:32;;;;;;;10.3;5.4;;;;;;;11.26;74.83105;930.0142;;;;
2023/03/24 06:31:56;;;;;;;11.9;5.2;;;;;;;11.56;73.29102;929.967;;;;
2023/03/24 06:34:24;;;;;;;7.8;6.1;;;;;;;11.63;73.70313;930.0026;;;;
2023/03/24 06:36:48;;;;;;;14.9;9;;;;;;;11.52;74.7832;929.9585;;;;
2023/03/24 06:39:14;;;;;;;15.5;9.3;;;;;;;11.53;74.76172;929.9456;;;;
2023/03/24 06:42:23;;;;;;;10.5;6.9;;;;;;;11.61;74.38672;930.055;;;;
2023/03/24 06:44:53;;;;;;;8.2;5.4;;;;;;;11.66;74.50977;930.0535;;;;
2023/03/24 06:47:18;;;;;;;9.4;5.8;;;;;;;11.77;73.79688;930.0253;;;;
2023/03/24 06:49:49;;;;;;;7.4;5.3;;;;;;;11.77;73.17871;930.0014;;;;
2023/03/24 06:52:23;;;;;;;7.5;5;;;;;;;11.82;71.81152;929.996;;;;
2023/03/24 06:54:47;;;;;;;8.1;4.4;;;;;;;12.04;70.68066;929.9927;;;;
2023/03/24 06:57:15;;;;;;;8;4.9;;;;;;;12.2;70.07617;929.9567;;;;
2023/03/24 06:59:46;;;;;;;5;4.4;;;;;;;12.44;69.17578;929.9579;;;;
2023/03/24 07:02:11;;;;;;;5.2;4.1;;;;;;;12.69;68.41113;930.0176;;;;
2023/03/24 07:04:39;;;;;;;8.1;4.6;;;;;;;12.83;68.59277;929.997;;;;
2023/03/24 07:07:05;;;;;;;7.9;4.3;;;;;;;12.74;68.54492;930.0753;;;;
2023/03/24 07:09:36;;;;;;;7;4.2;;;;;;;12.77;70.19141;930.0773;;;;
2023/03/24 07:12:02;;;;;;;8.3;4.6;;;;;;;12.91;70.38574;930.1301;;;;
2023/03/24 07:14:30;;;;;;;5.8;3.9;;;;;;;13.03;70.1875;930.1705;;;;
2023/03/24 07:16:55;;;;;;;6.7;4;;;;;;;13.23;69.63379;930.1316;;;;
2023/03/24 07:19:26;;;;;;;8.2;4.5;;;;;;;13.34;68.7207;929.9565;;;;
2023/03/24 07:21:59;;;;;;;6.9;4.6;;;;;;;13.28;67.6875;930.1213;;;;
2023/03/24 07:24:25;;;;;;;8.1;5.1;;;;;;;13.3;68.25391;930.1339;;;;
2023/03/24 07:26:55;;;;;;;6.9;4.4;;;;;;;13.34;68.05371;930.1747;;;;
2023/03/24 07:29:25;;;;;;;9.6;5.5;;;;;;;13.36;68.68848;930.193;;;;
2023/03/24 07:31:51;;;;;;;6.8;4.1;;;;;;;13.49;68.50195;930.1386;;;;
2023/03/24 07:34:15;;;;;;;8.3;4.5;;;;;;;13.6;68.02539;930.1528;;;;
2023/03/24 07:36:41;;;;;;;7;4.5;;;;;;;13.74;67.65625;930.1301;;;;
2023/03/24 07:39:08;;;;;;;8;4.4;;;;;;;13.89;67.51855;930.1152;;;;
2023/03/24 07:41:34;;;;;;;5.9;4.5;;;;;;;13.87;67.72168;930.1877;;;;
2023/03/24 07:44:00;;;;;;;6.5;4.5;;;;;;;13.97;68.62402;930.2572;;;;
2023/03/24 07:46:32;;;;;;;8.5;4.9;;;;;;;14;69.05469;930.3383;;;;
2023/03/24 07:49:01;;;;;;;6.9;5.3;;;;;;;13.95;68.58594;930.3784;;;;
2023/03/24 07:51:29;;;;;;;9.6;4.9;;;;;;;13.94;67.62891;930.3801;;;;
2023/03/24 07:53:54;;;;;;;8.5;4.8;;;;;;;14.01;68.14648;930.4934;;;;
2023/03/24 07:56:23;;;;;;;5.8;4.8;;;;;;;14.03;68.73535;930.5271;;;;
2023/03/24 07:58:48;;;;;;;6.5;4.6;;;;;;;14;67.65039;930.4832;;;;
2023/03/24 08:01:17;;;;;;;6;4.3;;;;;;;13.92;67.9375;930.3797;;;;
2023/03/24 08:03:42;;;;;;;8.6;5;;;;;;;13.86;68.74512;930.3245;;;;
2023/03/24 08:06:14;;;;;;;7.9;5.3;;;;;;;13.99;66.98145;930.3337;;;;
2023/03/24 08:08:39;;;;;;;5.3;4.1;;;;;;;14.21;64.13574;930.275;;;;
2023/03/24 08:11:10;;;;;;;4.7;4.2;;;;;;;14.47;62.95313;930.2785;;;;
2023/03/24 08:13:40;;;;;;;9.5;5.5;;;;;;;14.32;62.8623;930.3791;;;;
2023/03/24 08:16:09;;;;;;;7.9;5.8;;;;;;;14.63;62.6416;930.3943;;;;
2023/03/24 08:18:42;;;;;;;5.3;4.8;;;;;;;14.85;61.26855;930.3775;;;;
2023/03/24 08:21:13;;;;;;;6.4;4.6;;;;;;;15;61.87695;930.4041;;;;
2023/03/24 08:23:44;;;;;;;5.5;4.2;;;;;;;15.38;60.3125;930.4723;;;;
2023/03/24 08:26:11;;;;;;;6.5;4.1;;;;;;;15.55;58.70898;930.4688;;;;
2023/03/24 08:28:35;;;;;;;6.9;5.2;;;;;;;15.44;59.21387;930.5193;;;;
2023/03/24 08:31:02;;;;;;;8.6;4.6;;;;;;;15.52;59.81348;930.5297;;;;
2023/03/24 08:33:27;;;;;;;8.9;4.6;;;;;;;15.57;59.66895;930.5142;;;;
2023/03/24 08:35:56;;;;;;;5.9;4.8;;;;;;;15.56;59.74902;930.512;;;;
2023/03/24 08:38:21;;;;;;;7.2;4.9;;;;;;;15.68;59.77734;930.5331;;;;
2023/03/24 08:40:47;;;;;;;6.8;4.7;;;;;;;15.82;58.92871;930.6169;;;;
2023/03/24 08:43:11;;;;;;;8;4.8;;;;;;;15.88;59.27246;930.6043;;;;
2023/03/24 08:45:39;;;;;;;8.8;4.9;;;;;;;16.11;59.55957;930.5181;;;;
2023/03/24 08:48:09;;;;;;;8.4;6.8;;;;;;;16.25;60.51465;930.5044;;;;
2023/03/24 08:50:34;;;;;;;6.7;5;;;;;;;16.2;57.50098;930.5229;;;;
2023/03/24 08:52:59;;;;;;;7.4;4.8;;;;;;;16.47;57.19922;930.5875;;;;
2023/03/24 08:55:24;;;;;;;5.7;4.8;;;;;;;16.76;57.16797;930.6097;;;;
2023/03/24 08:57:53;;;;;;;8.2;4.8;;;;;;;17.05;57.22852;930.575;;;;
2023/03/24 09:00:18;;;;;;;8.7;4.9;;;;;;;17.22;54.07422;930.5508;;;;
2023/03/24 09:02:44;;;;;;;8.1;5;;;;;;;17.62;54.27441;930.5486;;;;
2023/03/24 09:05:10;;;;;;;6.9;4.5;;;;;;;18.11;51.98828;930.5178;;;;
2023/03/24 09:07:34;;;;;;;5.7;4.5;;;;;;;18.74;49.5957;930.4722;;;;
2023/03/24 09:10:04;;;;;;;6.5;4.6;;;;;;;19;50.7666;930.5327;;;;
2023/03/24 09:12:36;;;;;;;5.8;4.7;;;;;;;19.26;49.09668;930.574;;;;
2023/03/24 09:15:05;;;;;;;7.2;5;;;;;;;19.39;48.7832;930.5799;;;;
2023/03/24 09:17:31;;;;;;;9;5;;;;;;;19.31;47.58691;930.548;;;;
2023/03/24 09:19:56;;;;;;;6.5;4.6;;;;;;;19.05;48.95605;930.5644;;;;
2023/03/24 09:22:21;;;;;;;7.6;5;;;;;;;18.88;49.68262;930.541;;;;
2023/03/24 09:24:47;;;;;;;7;4.9;;;;;;;18.76;50.93652;930.6328;;;;
2023/03/24 09:27:12;;;;;;;7.5;4.9;;;;;;;18.66;50.86719;930.6417;;;;
2023/03/24 09:29:38;;;;;;;6.4;4.8;;;;;;;18.45;50.98242;930.7175;;;;
2023/03/24 09:32:03;;;;;;;9;5.2;;;;;;;18.29;50.5918;930.6919;;;;
2023/03/24 09:34:32;;;;;;;7.9;4.6;;;;;;;18;51.99805;930.7402;;;;
2023/03/24 09:36:56;;;;;;;6.4;4.4;;;;;;;17.88;52.84375;930.6954;;;;
2023/03/24 09:39:23;;;;;;;5.6;4.7;;;;;;;17.78;53.5625;930.7166;;;;
2023/03/24 09:41:49;;;;;;;5.9;4.5;;;;;;;17.7;54.27344;930.7182;;;;
2023/03/24 09:44:13;;;;;;;5.5;4.7;;;;;;;17.7;53.27539;930.736;;;;
2023/03/24 09:46:38;;;;;;;8.4;4.9;;;;;;;17.66;51.82031;930.7739;;;;
2023/03/24 09:49:06;;;;;;;6.5;4.5;;;;;;;17.51;52.69531;930.8271;;;;
2023/03/24 09:51:34;;;;;;;8.7;5.5;;;;;;;17.46;53.22266;930.7497;;;;
2023/03/24 09:53:59;;;;;;;7.7;5.8;;;;;;;17.51;54.63184;930.5955;;;;
2023/03/24 09:56:28;;;;;;;8.2;4.9;;;;;;;17.34;56.91797;930.4342;;;;
2023/03/24 09:58:53;;;;;;;5.7;4.3;;;;;;;17.13;56.77637;930.5234;;;;
2023/03/24 10:01:22;;;;;;;4.2;3.8;;;;;;;17.21;55.24414;930.5801;;;;
2023/03/24 10:03:53;;;;;;;6.7;3.9;;;;;;;17.37;55.17188;930.5718;;;;
2023/03/24 10:06:20;;;;;;;6.2;4.6;;;;;;;17.65;53.76758;930.6752;;;;
2023/03/24 10:08:43;;;;;;;7.9;4.7;;;;;;;18.02;52.53516;930.7645;;;;
2023/03/24 10:11:08;;;;;;;7.4;4.5;;;;;;;18.33;55.11914;930.8661;;;;
2023/03/24 10:13:34;;;;;;;7.7;4.1;;;;;;;18.2;51.73242;931.0126;;;;
2023/03/24 10:16:07;;;;;;;10.1;4.2;;;;;;;18.3;52.9873;931.0753;;;;
2023/03/24 10:18:33;;;;;;;8.1;4.1;;;;;;;18.23;51.11914;931.2564;;;;
2023/03/24 10:20:57;;;;;;;4.7;3.9;;;;;;;17.76;51.07617;931.3663;;;;
2023/03/24 10:23:22;;;;;;;5.4;4.1;;;;;;;17.32;52.33594;931.447;;;;
2023/03/24 10:25:49;;;;;;;5.9;4.1;;;;;;;17.11;53.56348;931.4766;;;;
2023/03/24 10:28:14;;;;;;;7;4.3;;;;;;;17.23;54.08789;931.6033;;;;
2023/03/24 10:30:39;;;;;;;8.4;5.2;;;;;;;17.05;54.37891;931.6038;;;;
2023/03/24 10:33:04;;;;;;;6.9;4.8;;;;;;;17.21;55.03516;931.6928;;;;
2023/03/24 10:35:32;;;;;;;7.5;5.2;;;;;;;16.99;54.55664;931.7224;;;;
2023/03/24 10:37:58;;;;;;;5.6;4.9;;;;;;;16.87;53.89258;931.7294;;;;
2023/03/24 10:40:24;;;;;;;8.3;4.8;;;;;;;17.05;55.21289;931.7581;;;;
2023/03/24 10:42:49;;;;;;;6.5;4.8;;;;;;;17.27;58.37109;931.8162;;;;
2023/03/24 10:45:14;;;;;;;5.3;4.7;;;;;;;17.18;54.71875;931.8745;;;;
2023/03/24 10:47:39;;;;;;;5.6;5;;;;;;;17.06;58.32031;931.8158;;;;
2023/03/24 10:50:07;;;;;;;5.7;4.8;;;;;;;17.33;60.88477;931.8106;;;;
2023/03/24 10:52:32;;;;;;;6.7;5;;;;;;;17.5;58.76172;931.7008;;;;
2023/03/24 10:55:00;;;;;;;7;4.7;;;;;;;17.83;58.99023;931.653;;;;
2023/03/24 10:57:25;;;;;;;5.1;4;;;;;;;18.61;55.4082;931.6357;;;;
2023/03/24 10:59:55;;;;;;;4.9;3.8;;;;;;;19.42;52.53906;931.6421;;;;
2023/03/24 11:02:20;;;;;;;5.7;4.7;;;;;;;20.87;50.01172;931.5123;;;;
2023/03/24 11:04:47;;;;;;;6.6;4;;;;;;;21.72;48.46777;931.5373;;;;
2023/03/24 11:07:12;;;;;;;3.5;2.7;;;;;;;20.88;46.01465;931.5586;;;;
2023/03/24 11:09:37;;;;;;;2.9;2.6;;;;;;;20.53;47.68359;931.5559;;;;
2023/03/24 11:12:02;;;;;;;3.6;3.1;;;;;;;20.11;48.33789;931.5474;;;;
2023/03/24 11:14:31;;;;;;;4.1;3.6;;;;;;;18.89;53.06934;931.6291;;;;
2023/03/24 11:16:56;;;;;;;6.3;4.2;;;;;;;18.38;54.25293;931.5701;;;;
2023/03/24 11:19:21;;;;;;;4.3;3.9;;;;;;;18.18;53.73926;931.5341;;;;
2023/03/24 11:21:47;;;;;;;4.9;4.1;;;;;;;18.39;54.48633;931.5737;;;;
2023/03/24 11:24:13;;;;;;;5.6;4.4;;;;;;;18.94;54.68262;931.5458;;;;
2023/03/24 11:26:40;;;;;;;5.9;3.8;;;;;;;18.87;51.76367;931.5616;;;;
2023/03/24 11:29:07;;;;;;;4.7;3.7;;;;;;;18.89;53.41895;931.5296;;;;
2023/03/24 11:31:37;;;;;;;4.2;3.8;;;;;;;19.11;51.9209;931.4249;;;;
2023/03/24 11:33:58;;;;;;;5.5;3.6;;;;;;;19.96;50.34082;931.3133;;;;
2023/03/24 11:36:23;;;;;;;3.2;2.7;;;;;;;20.77;45.57129;931.2498;;;;
2023/03/24 11:38:48;;;;;;;3.3;3;;;;;;;21.14;45.72559;931.2391;;;;
2023/03/24 11:41:16;;;;;;;4.3;3.9;;;;;;;21.98;44.46387;931.1824;;;;
2023/03/24 11:43:41;;;;;;;4.1;3.2;;;;;;;21.98;44.18262;931.1928;;;;
2023/03/24 11:46:09;;;;;;;4.3;2.7;;;;;;;21.96;41.63867;931.093;;;;
2023/03/24 11:48:34;;;;;;;4.3;3.2;;;;;;;22.11;41.8877;931.0405;;;;
2023/03/24 11:50:59;;;;;;;3;2.7;;;;;;;21.87;42.25;930.9789;;;;
2023/03/24 11:53:24;;;;;;;3.1;2.8;;;;;;;21.93;41.66992;930.8912;;;;
2023/03/24 11:55:52;;;;;;;4.6;2.8;;;;;;;21.85;43.41992;930.8997;;;;
2023/03/24 11:58:17;;;;;;;3.2;2.8;;;;;;;21.11;45.2666;930.8113;;;;
2023/03/24 12:00:43;;;;;;;3.2;2.7;;;;;;;21.15;44.04297;930.8077;;;;
2023/03/24 12:03:08;;;;;;;3;2.7;;;;;;;21.51;42.73242;930.7489;;;;
2023/03/24 12:05:38;;;;;;;3.9;2.9;;;;;;;21.51;43.5166;930.7483;;;;
2023/03/24 12:08:03;;;;;;;3.9;2.9;;;;;;;21.52;42.08887;930.6917;;;;
2023/03/24 12:10:33;;;;;;;3;2.7;;;;;;;21.16;43.61035;930.6711;;;;
2023/03/24 12:13:01;;;;;;;4;3.2;;;;;;;21.77;42.76855;930.6082;;;;
2023/03/24 12:15:28;;;;;;;3.3;3;;;;;;;21.62;43.02344;930.5714;;;;
2023/03/24 12:17:58;;;;;;;3.2;2.8;;;;;;;21.78;43.37793;930.5314;;;;
2023/03/24 12:20:24;;;;;;;3.7;2.7;;;;;;;22.69;42.83301;930.4708;;;;
2023/03/24 12:22:49;;;;;;;3.6;2.8;;;;;;;23.23;39.58301;930.3708;;;;
2023/03/24 12:25:19;;;;;;;3.2;2.7;;;;;;;24.98;37.40234;930.3383;;;;
2023/03/24 12:27:45;;;;;;;3.7;2.7;;;;;;;26.36;34.21582;930.3656;;;;
2023/03/24 12:30:16;;;;;;;2.8;2.5;;;;;;;27.97;32.40332;930.2899;;;;
2023/03/24 12:32:42;;;;;;;2.7;2.5;;;;;;;29.64;28.85059;930.2293;;;;
2023/03/24 12:35:16;;;;;;;2.4;2.1;;;;;;;30.78;28.88867;930.1069;;;;
2023/03/24 12:37:44;;;;;;;2.7;2.3;;;;;;;31.42;26.4873;930.0494;;;;
2023/03/24 12:40:13;;;;;;;2.5;2.3;;;;;;;31.81;26.6416;930.0317;;;;
2023/03/24 12:42:43;;;;;;;2.3;2;;;;;;;31.89;25.28027;930.0808;;;;
2023/03/24 12:45:08;;;;;;;1.8;1.7;;;;;;;30.41;27.27637;930.0865;;;;
2023/03/24 12:47:33;;;;;;;2.1;1.9;;;;;;;28.63;28.56055;930.0715;;;;
2023/03/24 12:50:00;;;;;;;3.3;2.1;;;;;;;26.96;31.40527;929.9872;;;;
2023/03/24 12:52:25;;;;;;;2.9;2.3;;;;;;;25.55;33.62305;930.0466;;;;
2023/03/24 12:54:50;;;;;;;2.4;1.8;;;;;;;24.77;34.84961;930.0237;;;;
2023/03/24 12:57:16;;;;;;;2.6;2.1;;;;;;;23.58;37.14355;929.9963;;;;
2023/03/24 12:59:41;;;;;;;2.7;2;;;;;;;22.88;38.44824;930.0164;;;;
2023/03/24 13:02:07;;;;;;;5;2.3;;;;;;;22.45;40.06543;930.0136;;;;
2023/03/24 13:04:32;;;;;;;2.3;2.1;;;;;;;22.11;39.94141;929.988;;;;
2023/03/24 13:06:58;;;;;;;6.5;2.3;;;;;;;21.71;41.88477;930.0452;;;;
2023/03/24 13:09:23;;;;;;;2.8;2.4;;;;;;;21.32;44.45703;929.9797;;;;
2023/03/24 13:11:48;;;;;;;2.2;2;;;;;;;20.35;48.31836;929.9331;;;;
2023/03/24 13:14:13;;;;;;;2.3;2;;;;;;;19.71;50.78906;930.0648;;;;
2023/03/24 13:16:38;;;;;;;2.2;2;;;;;;;19.11;50.6875;930.0302;;;;
2023/03/24 13:19:03;;;;;;;2.5;1.7;;;;;;;19.03;51.86426;929.976;;;;
2023/03/24 13:21:33;;;;;;;2.4;2.2;;;;;;;18.81;55.63281;929.8881;;;;
2023/03/24 13:23:56;;;;;;;2.3;1.8;;;;;;;18.65;55.33301;929.701;;;;
2023/03/24 13:26:24;;;;;;;2.1;1.9;;;;;;;19.18;55.09668;929.6017;;;;
2023/03/24 13:28:53;;;;;;;2.9;2.4;;;;;;;19.61;54.63672;929.6055;;;;
2023/03/24 13:31:18;;;;;;;2.2;1.8;;;;;;;19.5;52.73535;929.5926;;;;
2023/03/24 13:33:44;;;;;;;2.2;2;;;;;;;19.01;55.45996;929.6931;;;;
2023/03/24 13:36:12;;;;;;;1.7;1.6;;;;;;;18.92;54.26074;929.6917;;;;
2023/03/24 13:38:41;;;;;;;1.9;1.4;;;;;;;19.01;51.79297;929.6417;;;;
2023/03/24 13:41:05;;;;;;;1.3;1.2;;;;;;;19.18;51.11328;929.6574;;;;
2023/03/24 13:43:34;;;;;;;1.3;1.2;;;;;;;19.11;50.39648;929.6234;;;;
2023/03/24 13:45:59;;;;;;;1.2;1.1;;;;;;;18.99;51.69629;929.5922;;;;
2023/03/24 13:48:27;;;;;;;1.3;1.2;;;;;;;18.86;52.10059;929.551;;;;
2023/03/24 13:50:52;;;;;;;1.4;1.3;;;;;;;18.24;53.21191;929.575;;;;
2023/03/24 13:53:17;;;;;;;1.2;1.1;;;;;;;17.92;54.32324;929.4835;;;;
2023/03/24 13:55:42;;;;;;;2.2;1.4;;;;;;;17.81;53.52051;929.5148;;;;
2023/03/24 13:58:11;;;;;;;1.3;1.2;;;;;;;17.66;53.7002;929.4735;;;;
2023/03/24 14:00:36;;;;;;;1.4;1.3;;;;;;;17.55;55.20605;929.4849;;;;
2023/03/24 14:03:02;;;;;;;1.5;1.4;;;;;;;17.2;55.3584;929.4863;;;;
2023/03/24 14:05:31;;;;;;;1.4;1.3;;;;;;;17.07;55.71387;929.3943;;;;
2023/03/24 14:07:56;;;;;;;1.5;1.2;;;;;;;17.13;55.57129;929.3972;;;;
2023/03/24 14:10:21;;;;;;;1.2;1.1;;;;;;;17.13;55.4668;929.3958;;;;
2023/03/24 14:12:50;;;;;;;2.1;1.1;;;;;;;17.07;56.73242;929.4597;;;;
2023/03/24 14:15:15;;;;;;;1.6;1.3;;;;;;;16.8;59.86133;929.5158;;;;
2023/03/24 14:17:42;;;;;;;1.2;1.1;;;;;;;16.57;62.08594;929.5642;;;;
2023/03/24 14:20:09;;;;;;;1.3;1.2;;;;;;;16.49;62.83984;929.6186;;;;
2023/03/24 14:22:31;;;;;;;1.3;1;;;;;;;16.35;63.75684;929.5016;;;;
2023/03/24 14:24:58;;;;;;;1.3;1.2;;;;;;;16.07;64.84766;929.3691;;;;
2023/03/24 14:27:24;;;;;;;1.3;1.2;;;;;;;15.9;67.11426;929.3304;;;;
2023/03/24 14:29:49;;;;;;;1.4;1.3;;;;;;;15.79;68.80664;929.3025;;;;
2023/03/24 14:32:16;;;;;;;1.8;1.4;;;;;;;15.8;69.70898;929.3834;;;;
2023/03/24 14:34:40;;;;;;;1.3;1.2;;;;;;;15.75;68.47656;929.3772;;;;
2023/03/24 14:37:06;;;;;;;1.9;1.3;;;;;;;15.56;69.75293;929.5201;;;;
2023/03/24 14:39:35;;;;;;;2;1.7;;;;;;;15.36;69.52344;929.5815;;;;
2023/03/24 14:41:59;;;;;;;2.1;1.2;;;;;;;15.09;70.19727;929.5776;;;;
2023/03/24 14:44:24;;;;;;;2;1.8;;;;;;;14.67;72.57422;929.5433;;;;
2023/03/24 14:46:50;;;;;;;2;1.5;;;;;;;14.68;72.41211;929.4824;;;;
2023/03/24 14:49:16;;;;;;;3;2.3;;;;;;;14.68;74.07227;929.3855;;;;
2023/03/24 14:51:43;;;;;;;2.7;2.2;;;;;;;14.58;74.78125;929.504;;;;
2023/03/24 14:54:09;;;;;;;3.2;2.9;;;;;;;14.27;78.02441;929.4966;;;;
2023/03/24 14:56:34;;;;;;;3.5;2.6;;;;;;;14.1;78.30273;929.5115;;;;
2023/03/24 14:59:01;;;;;;;4.7;3.1;;;;;;;13.86;79.83691;929.5499;;;;
2023/03/24 15:01:29;;;;;;;4;3.1;;;;;;;13.75;80.89453;929.5308;;;;